createdAt,value
2019-03-06T00:00:33.284Z,15.57
2019-03-06T00:03:01.947Z,9.43
2019-03-06T00:05:30.588Z,9.63
2019-03-06T00:07:59.138Z,12.27
2019-03-06T00:10:31.281Z,8.40
2019-03-06T00:12:59.901Z,11.23
2019-03-06T00:15:28.777Z,9.07
2019-03-06T00:17:57.329Z,12.23
2019-03-06T00:20:26.008Z,13.80
2019-03-06T00:22:54.641Z,16.63
2019-03-06T00:25:23.316Z,18.07
2019-03-06T00:27:51.950Z,16.60
2019-03-06T00:30:20.921Z,16.37
2019-03-06T00:32:49.555Z,16.93
2019-03-06T00:35:34.567Z,19.20
2019-03-06T00:38:03.174Z,18.57
2019-03-06T00:40:48.331Z,22.27
2019-03-06T00:43:17.017Z,16.60
2019-03-06T00:45:45.647Z,17.87
2019-03-06T00:48:14.317Z,24.50
2019-03-06T00:50:42.954Z,39.30
2019-03-06T00:53:11.631Z,40.60
2019-03-06T00:55:40.306Z,27.97
2019-03-06T00:58:08.939Z,24.63
2019-03-06T01:00:37.539Z,59.57
2019-03-06T01:03:07.072Z,25.83
2019-03-06T01:05:35.740Z,42.57
2019-03-06T01:08:04.370Z,31.57
2019-03-06T01:10:35.726Z,24.97
2019-03-06T01:13:04.427Z,27.30
2019-03-06T01:15:33.237Z,28.23
2019-03-06T01:18:01.880Z,32.10
2019-03-06T01:20:30.558Z,38.43
2019-03-06T01:22:59.228Z,37.93
2019-03-06T01:25:27.854Z,41.20
2019-03-06T01:27:56.767Z,39.20
2019-03-06T01:30:26.738Z,39.03
2019-03-06T01:33:13.422Z,37.40
2019-03-06T01:35:43.690Z,38.57
2019-03-06T01:38:23.024Z,31.23
2019-03-06T01:40:56.243Z,32.80
2019-03-06T01:43:41.368Z,36.20
2019-03-06T01:46:10.064Z,33.53
2019-03-06T01:48:38.680Z,32.70
2019-03-06T01:51:07.302Z,34.83
2019-03-06T01:53:35.852Z,31.73
2019-03-06T01:56:04.473Z,31.87
2019-03-06T01:58:33.039Z,34.60
2019-03-06T02:01:01.609Z,35.17
2019-03-06T02:03:30.244Z,37.20
2019-03-06T02:05:58.918Z,35.40
2019-03-06T02:08:30.640Z,41.07
2019-03-06T02:10:59.272Z,35.80
2019-03-06T02:13:27.958Z,36.00
2019-03-06T02:15:56.630Z,33.43
2019-03-06T02:18:25.254Z,32.80
2019-03-06T02:20:53.855Z,30.57
2019-03-06T02:23:22.416Z,32.07
2019-03-06T02:25:51.101Z,29.40
2019-03-06T02:28:19.730Z,23.30
2019-03-06T02:30:48.362Z,17.27
2019-03-06T02:33:16.933Z,18.53
2019-03-06T02:35:45.492Z,21.60
2019-03-06T02:38:14.093Z,18.93
2019-03-06T02:40:42.653Z,19.23
2019-03-06T02:43:11.334Z,19.20
2019-03-06T02:45:39.964Z,21.97
2019-03-06T02:48:08.862Z,24.67
2019-03-06T02:50:37.538Z,23.77
2019-03-06T02:53:06.175Z,23.23
2019-03-06T02:55:34.843Z,20.17
2019-03-06T02:58:13.913Z,17.87
2019-03-06T03:00:50.307Z,20.33
2019-03-06T03:03:32.543Z,24.60
2019-03-06T03:06:02.790Z,27.33
2019-03-06T03:08:31.493Z,20.50
2019-03-06T03:11:00.087Z,20.87
2019-03-06T03:13:28.724Z,17.30
2019-03-06T03:15:57.355Z,20.87
2019-03-06T03:18:25.992Z,19.17
2019-03-06T03:20:54.843Z,18.40
2019-03-06T03:23:23.401Z,18.77
2019-03-06T03:25:52.036Z,22.53
2019-03-06T03:28:20.568Z,20.00
2019-03-06T03:30:49.127Z,22.03
2019-03-06T03:33:17.962Z,22.67
2019-03-06T03:35:46.597Z,20.00
2019-03-06T03:38:15.230Z,20.97
2019-03-06T03:40:43.732Z,19.70
2019-03-06T03:43:12.362Z,17.77
2019-03-06T03:45:41.006Z,21.87
2019-03-06T03:48:09.901Z,26.00
2019-03-06T03:50:38.533Z,21.37
2019-03-06T03:53:07.093Z,21.47
2019-03-06T03:55:35.731Z,18.00
2019-03-06T03:58:04.420Z,17.97
2019-03-06T04:00:33.044Z,19.47
2019-03-06T04:03:01.734Z,17.27
2019-03-06T04:05:30.390Z,17.63
2019-03-06T04:07:58.942Z,18.20
2019-03-06T04:10:27.582Z,21.80
2019-03-06T04:12:56.208Z,20.57
2019-03-06T04:15:24.956Z,21.30
2019-03-06T04:17:53.518Z,21.97
2019-03-06T04:20:22.120Z,25.67
2019-03-06T04:22:50.674Z,23.17
2019-03-06T04:25:19.349Z,25.27
2019-03-06T04:27:48.242Z,24.27
2019-03-06T04:30:21.512Z,24.83
2019-03-06T04:32:50.063Z,28.53
2019-03-06T04:35:18.736Z,26.63
2019-03-06T04:37:47.257Z,28.53
2019-03-06T04:40:16.214Z,20.57
2019-03-06T04:42:44.816Z,20.00
2019-03-06T04:45:17.631Z,20.63
2019-03-06T04:47:46.306Z,18.47
2019-03-06T04:50:15.499Z,20.97
2019-03-06T04:52:44.394Z,19.50
2019-03-06T04:55:14.275Z,23.70
2019-03-06T04:57:42.896Z,22.97
2019-03-06T05:00:19.611Z,22.97
2019-03-06T05:02:48.174Z,20.53
2019-03-06T05:05:16.822Z,18.93
2019-03-06T05:07:45.486Z,17.73
2019-03-06T05:10:14.715Z,19.50
2019-03-06T05:12:43.288Z,19.00
2019-03-06T05:15:18.500Z,21.90
2019-03-06T05:17:54.797Z,28.53
2019-03-06T05:20:23.402Z,24.53
2019-03-06T05:22:51.962Z,22.47
2019-03-06T05:25:20.529Z,20.90
2019-03-06T05:27:49.209Z,22.90
2019-03-06T05:30:19.704Z,23.67
2019-03-06T05:32:50.359Z,25.03
2019-03-06T05:35:24.695Z,27.70
2019-03-06T05:38:14.732Z,24.07
2019-03-06T05:40:43.405Z,29.53
2019-03-06T05:43:12.085Z,32.10
2019-03-06T05:45:40.737Z,26.67
2019-03-06T05:48:09.342Z,24.47
2019-03-06T05:50:38.022Z,29.00
2019-03-06T05:53:06.805Z,27.83
2019-03-06T05:55:35.400Z,25.73
2019-03-06T05:58:04.077Z,25.13
2019-03-06T06:00:32.741Z,27.63
2019-03-06T06:03:01.405Z,34.50
2019-03-06T06:05:30.053Z,37.97
2019-03-06T06:07:58.653Z,31.70
2019-03-06T06:10:27.337Z,29.57
2019-03-06T06:12:56.059Z,30.10
2019-03-06T06:15:24.723Z,28.40
2019-03-06T06:17:53.473Z,26.43
2019-03-06T06:20:22.233Z,26.83
2019-03-06T06:22:58.804Z,18.87
2019-03-06T06:25:31.935Z,21.60
2019-03-06T06:28:00.758Z,25.07
2019-03-06T06:30:29.445Z,22.07
2019-03-06T06:32:58.092Z,19.93
2019-03-06T06:35:27.195Z,13.83
2019-03-06T06:37:55.982Z,13.67
2019-03-06T06:40:24.708Z,11.00
2019-03-06T06:42:53.544Z,12.23
2019-03-06T06:45:22.243Z,14.77
2019-03-06T06:48:10.097Z,15.67
2019-03-06T06:50:44.436Z,17.40
2019-03-06T06:53:35.282Z,21.27
2019-03-06T06:56:27.306Z,31.00
2019-03-06T06:59:21.802Z,18.67
2019-03-06T07:02:20.995Z,16.23
2019-03-06T07:05:30.146Z,15.67
2019-03-06T07:08:12.613Z,16.47
2019-03-06T07:10:42.971Z,16.20
2019-03-06T07:13:15.995Z,18.10
2019-03-06T07:15:57.997Z,16.07
2019-03-06T07:18:44.709Z,16.73
2019-03-06T07:21:15.102Z,16.30
2019-03-06T07:23:48.204Z,13.23
2019-03-06T07:26:21.342Z,13.53
2019-03-06T07:28:52.627Z,11.80
2019-03-06T07:31:27.252Z,10.33
2019-03-06T07:34:10.424Z,9.70
2019-03-06T07:36:46.748Z,10.40
2019-03-06T07:39:19.581Z,13.60
2019-03-06T07:41:52.906Z,10.07
2019-03-06T07:44:39.732Z,13.60
2019-03-06T07:47:22.412Z,11.13
2019-03-06T07:49:55.655Z,14.20
2019-03-06T07:52:32.073Z,13.20
2019-03-06T07:55:18.892Z,13.90
2019-03-06T07:58:23.433Z,11.77
2019-03-06T08:00:53.631Z,11.70
2019-03-06T08:03:22.260Z,11.27
2019-03-06T08:05:50.932Z,16.63
2019-03-06T08:08:19.619Z,11.63
2019-03-06T08:10:51.044Z,13.80
2019-03-06T08:13:24.315Z,14.10
2019-03-06T08:15:57.225Z,12.20
2019-03-06T08:18:38.113Z,9.53
2019-03-06T08:21:11.501Z,11.07
2019-03-06T08:23:43.764Z,10.73
2019-03-06T08:26:13.368Z,15.17
2019-03-06T08:28:42.616Z,9.20
2019-03-06T08:31:16.713Z,14.77
2019-03-06T08:33:45.758Z,12.30
2019-03-06T08:36:15.806Z,11.30
2019-03-06T08:38:46.632Z,11.27
2019-03-06T08:41:19.101Z,11.87
2019-03-06T08:43:49.245Z,13.93
2019-03-06T08:46:32.371Z,13.60
2019-03-06T08:49:10.237Z,12.27
2019-03-06T08:51:40.583Z,17.70
2019-03-06T08:54:23.223Z,15.27
2019-03-06T08:56:59.377Z,15.30
2019-03-06T08:59:38.733Z,14.20
2019-03-06T09:02:15.558Z,12.13
2019-03-06T09:04:44.245Z,10.63
2019-03-06T09:07:31.405Z,9.03
2019-03-06T09:10:11.033Z,10.10
2019-03-06T09:12:50.586Z,13.63
2019-03-06T09:15:36.845Z,9.73
2019-03-06T09:18:24.159Z,11.27
2019-03-06T09:21:00.607Z,11.67
2019-03-06T09:23:47.228Z,13.13
2019-03-06T09:26:17.594Z,15.17
2019-03-06T09:28:51.081Z,13.43
2019-03-06T09:31:27.570Z,17.03
2019-03-06T09:34:03.798Z,23.73
2019-03-06T09:36:34.109Z,23.93
2019-03-06T09:39:04.603Z,20.97
2019-03-06T09:41:37.883Z,17.47
2019-03-06T09:44:08.465Z,14.50
2019-03-06T09:46:54.435Z,18.63
2019-03-06T09:49:29.389Z,14.73
2019-03-06T09:52:09.084Z,12.93
2019-03-06T09:54:45.196Z,21.00
2019-03-06T09:57:15.794Z,17.23
2019-03-06T09:59:55.154Z,15.17
2019-03-06T10:02:37.884Z,19.13
2019-03-06T10:05:09.358Z,16.20
2019-03-06T10:07:55.886Z,13.77
2019-03-06T10:10:26.155Z,12.17
2019-03-06T10:12:56.473Z,15.77
2019-03-06T10:15:26.737Z,11.17
2019-03-06T10:17:57.055Z,14.17
2019-03-06T10:20:26.154Z,14.50
2019-03-06T10:22:59.472Z,13.43
2019-03-06T10:25:29.956Z,11.67
2019-03-06T10:28:06.674Z,10.33
2019-03-06T10:30:34.715Z,7.73
2019-03-06T10:33:03.496Z,8.73
2019-03-06T10:35:32.523Z,11.40
2019-03-06T10:38:01.612Z,13.67
2019-03-06T10:40:33.240Z,13.17
2019-03-06T10:43:02.171Z,8.63
2019-03-06T10:45:30.922Z,13.77
2019-03-06T10:48:00.037Z,11.90
2019-03-06T10:50:30.089Z,14.00
2019-03-06T10:52:59.307Z,13.20
2019-03-06T10:55:28.489Z,8.83
2019-03-06T10:57:57.443Z,7.10
2019-03-06T11:00:30.843Z,9.40
2019-03-06T11:02:59.950Z,9.43
2019-03-06T11:05:32.231Z,6.90
2019-03-06T11:08:01.695Z,10.27
2019-03-06T11:10:32.801Z,4.93
2019-03-06T11:13:03.787Z,8.00
2019-03-06T11:15:32.853Z,8.17
2019-03-06T11:18:01.882Z,8.33
2019-03-06T11:20:35.450Z,6.87
2019-03-06T11:23:10.121Z,7.10
2019-03-06T11:25:40.615Z,5.45
2019-03-06T11:28:12.206Z,5.22
2019-03-06T11:30:55.952Z,6.53
2019-03-06T11:33:26.606Z,4.75
2019-03-06T11:35:58.249Z,5.20
2019-03-06T11:38:27.924Z,7.42
2019-03-06T11:40:57.591Z,5.35
2019-03-06T11:43:29.512Z,6.45
2019-03-06T11:46:05.741Z,5.60
2019-03-06T11:48:36.354Z,8.80
2019-03-06T11:51:07.869Z,5.70
2019-03-06T11:53:36.837Z,6.33
2019-03-06T11:56:06.686Z,5.58
2019-03-06T11:58:35.692Z,5.87
2019-03-06T12:01:07.637Z,5.60
2019-03-06T12:03:39.837Z,5.90
2019-03-06T12:06:08.578Z,7.35
2019-03-06T12:08:45.573Z,5.40
2019-03-06T12:11:08.093Z,5.62
2019-03-06T12:13:37.048Z,7.17
2019-03-06T12:16:06.042Z,4.87
2019-03-06T12:18:34.876Z,4.67
2019-03-06T12:21:03.570Z,5.58
2019-03-06T12:23:33.809Z,3.72
2019-03-06T12:26:02.754Z,5.12
2019-03-06T12:28:33.256Z,3.33
2019-03-06T12:31:02.476Z,4.33
2019-03-06T12:33:31.455Z,3.17
2019-03-06T12:36:01.915Z,5.72
2019-03-06T12:38:30.882Z,3.70
2019-03-06T12:41:05.757Z,3.75
2019-03-06T12:43:36.747Z,3.37
2019-03-06T12:46:23.940Z,16.77
2019-03-06T12:48:57.356Z,3.87
2019-03-06T12:51:26.131Z,4.62
2019-03-06T12:53:55.003Z,4.53
2019-03-06T12:56:25.238Z,8.63
2019-03-06T12:58:54.026Z,5.08
2019-03-06T13:01:22.756Z,4.30
2019-03-06T13:03:51.606Z,14.00
2019-03-06T13:08:51.061Z,3.72
2019-03-06T13:11:20.025Z,8.40
2019-03-06T13:13:48.661Z,4.83
2019-03-06T13:16:23.953Z,4.75
2019-03-06T13:18:54.540Z,4.50
2019-03-06T13:21:25.051Z,4.37
2019-03-06T13:23:57.091Z,5.60
2019-03-06T13:26:26.084Z,4.92
2019-03-06T13:28:57.585Z,3.83
2019-03-06T13:31:28.235Z,7.65
2019-03-06T13:34:01.337Z,5.15
2019-03-06T13:36:33.150Z,4.97
2019-03-06T13:39:06.277Z,7.42
2019-03-06T13:41:32.327Z,10.75
2019-03-06T13:44:01.219Z,11.93
2019-03-06T13:46:30.153Z,3.77
2019-03-06T13:48:58.996Z,6.37
2019-03-06T13:51:27.709Z,4.42
2019-03-06T13:53:56.713Z,7.60
2019-03-06T13:56:25.616Z,4.58
2019-03-06T13:58:54.349Z,2.62
2019-03-06T14:01:23.394Z,5.30
2019-03-06T14:03:53.416Z,3.72
2019-03-06T14:06:25.353Z,6.90
2019-03-06T14:08:55.635Z,3.77
2019-03-06T14:11:24.328Z,6.30
2019-03-06T14:13:52.991Z,4.60
2019-03-06T14:16:21.689Z,5.50
2019-03-06T14:18:50.455Z,4.40
2019-03-06T14:21:19.082Z,3.98
2019-03-06T14:23:47.894Z,50.73
2019-03-06T14:26:18.499Z,6.10
2019-03-06T14:28:49.766Z,4.67
2019-03-06T14:31:18.434Z,12.35
2019-03-06T14:33:46.978Z,6.58
2019-03-06T14:36:15.578Z,7.25
2019-03-06T14:38:44.121Z,3.87
2019-03-06T14:41:12.741Z,262.17
2019-03-06T14:43:44.193Z,44.03
2019-03-06T14:46:16.575Z,5.30
2019-03-06T14:48:43.182Z,4.65
2019-03-06T14:51:11.723Z,2.72
2019-03-06T14:53:40.407Z,4.55
2019-03-06T14:56:09.034Z,8.35
2019-03-06T14:58:37.561Z,4.22
2019-03-06T15:01:06.652Z,3.35
2019-03-06T15:03:35.314Z,3.40
2019-03-06T15:06:04.207Z,17.50
2019-03-06T15:08:32.811Z,5.08
2019-03-06T15:11:01.437Z,4.15
2019-03-06T15:13:30.063Z,6.83
2019-03-06T15:15:58.662Z,11.90
2019-03-06T15:18:27.214Z,2.98
2019-03-06T15:20:58.553Z,12.53
2019-03-06T15:23:27.176Z,3.60
2019-03-06T15:25:55.802Z,4.20
2019-03-06T15:28:24.400Z,4.33
2019-03-06T15:30:53.047Z,172.02
2019-03-06T15:33:21.924Z,10.35
2019-03-06T15:35:50.480Z,16.32
2019-03-06T15:38:19.085Z,4.70
2019-03-06T15:40:47.769Z,5.63
2019-03-06T15:43:17.458Z,3.27
2019-03-06T15:45:46.948Z,5.95
2019-03-06T15:48:15.627Z,5.20
2019-03-06T15:50:44.392Z,4.97
2019-03-06T15:53:23.915Z,2.63
2019-03-06T15:55:45.005Z,5.83
2019-03-06T15:58:13.735Z,4.63
2019-03-06T16:00:46.276Z,5.17
2019-03-06T16:03:13.807Z,3.60
2019-03-06T16:05:43.210Z,4.23
2019-03-06T16:08:13.434Z,4.90
2019-03-06T16:10:42.571Z,4.03
2019-03-06T16:13:11.196Z,3.30
2019-03-06T16:15:39.851Z,2.67
2019-03-06T16:18:09.771Z,5.37
2019-03-06T16:20:38.905Z,5.10
2019-03-06T16:23:07.866Z,3.63
2019-03-06T16:25:39.854Z,2.03
2019-03-06T16:28:07.308Z,4.93
2019-03-06T16:30:36.075Z,23.50
2019-03-06T16:33:04.813Z,5.03
2019-03-06T16:35:33.488Z,5.53
2019-03-06T16:38:02.042Z,2.90
2019-03-06T16:40:30.990Z,4.90
2019-03-06T16:42:59.616Z,2.40
2019-03-06T16:45:29.557Z,2.20
2019-03-06T16:47:58.327Z,4.33
2019-03-06T16:50:27.260Z,3.33
2019-03-06T16:52:56.010Z,10.23
2019-03-06T16:55:28.543Z,2.80
2019-03-06T16:57:57.688Z,4.00
2019-03-06T17:00:31.392Z,4.97
2019-03-06T17:03:01.972Z,5.70
2019-03-06T17:05:31.083Z,4.07
2019-03-06T17:08:00.103Z,3.30
2019-03-06T17:10:30.330Z,4.80
2019-03-06T17:12:59.495Z,5.53
2019-03-06T17:15:29.610Z,10.07
2019-03-06T17:17:58.232Z,12.53
2019-03-06T17:20:31.432Z,12.43
2019-03-06T17:23:00.137Z,10.83
2019-03-06T17:25:29.208Z,13.33
2019-03-06T17:27:58.076Z,23.40
2019-03-06T17:30:28.424Z,32.27
2019-03-06T17:33:02.638Z,48.50
2019-03-06T17:35:32.820Z,51.27
2019-03-06T17:38:01.692Z,69.73
2019-03-06T17:40:30.622Z,61.23
2019-03-06T17:42:59.595Z,63.00
2019-03-06T17:45:28.434Z,121.13
2019-03-06T17:47:57.181Z,99.73
2019-03-06T17:50:26.222Z,198.70
2019-03-06T17:52:55.317Z,113.50
2019-03-06T17:55:24.053Z,128.73
2019-03-06T17:57:52.694Z,130.37
2019-03-06T18:00:31.487Z,54.93
2019-03-06T18:03:00.742Z,121.20
2019-03-06T18:05:29.386Z,103.37
2019-03-06T18:07:58.055Z,106.33
2019-03-06T18:10:26.892Z,56.83
2019-03-06T18:12:58.740Z,102.40
2019-03-06T18:15:27.671Z,87.23
2019-03-06T18:17:56.295Z,73.40
2019-03-06T18:20:24.914Z,90.77
2019-03-06T18:22:55.170Z,78.77
2019-03-06T18:25:25.489Z,62.33
2019-03-06T18:27:54.124Z,55.90
2019-03-06T18:30:23.245Z,55.50
2019-03-06T18:32:51.864Z,62.50
2019-03-06T18:35:22.219Z,93.07
2019-03-06T18:37:51.226Z,99.60
2019-03-06T18:40:24.607Z,82.10
2019-03-06T18:42:54.878Z,88.20
2019-03-06T18:45:23.992Z,66.87
2019-03-06T18:47:52.540Z,60.50
2019-03-06T18:50:22.411Z,58.17
2019-03-06T18:52:56.756Z,53.87
2019-03-06T18:55:26.346Z,56.30
2019-03-06T18:57:58.011Z,63.53
2019-03-06T19:00:28.142Z,62.33
2019-03-06T19:02:56.786Z,45.07
2019-03-06T19:05:25.462Z,48.30
2019-03-06T19:07:54.100Z,54.10
2019-03-06T19:10:23.747Z,57.20
2019-03-06T19:12:52.601Z,57.63
2019-03-06T19:15:26.438Z,61.17
2019-03-06T19:17:55.116Z,79.40
2019-03-06T19:20:24.053Z,163.53
2019-03-06T19:22:53.492Z,132.47
2019-03-06T19:25:22.113Z,81.37
2019-03-06T19:27:50.970Z,69.47
2019-03-06T19:30:21.861Z,51.57
2019-03-06T19:32:53.290Z,31.03
2019-03-06T19:35:23.259Z,28.63
2019-03-06T19:37:55.102Z,23.73
2019-03-06T19:40:24.219Z,22.03
2019-03-06T19:42:52.866Z,20.50
2019-03-06T19:45:25.600Z,27.97
2019-03-06T19:47:54.237Z,30.97
2019-03-06T19:50:25.868Z,31.33
2019-03-06T19:52:54.864Z,25.77
2019-03-06T19:55:23.729Z,21.63
2019-03-06T19:57:59.942Z,20.10
2019-03-06T20:00:30.319Z,15.77
2019-03-06T20:02:59.647Z,19.70
2019-03-06T20:05:41.238Z,21.03
2019-03-06T20:08:12.517Z,22.17
2019-03-06T20:10:41.584Z,23.30
2019-03-06T20:13:11.017Z,19.20
2019-03-06T20:15:40.761Z,31.53
2019-03-06T20:18:09.499Z,34.17
2019-03-06T20:20:38.138Z,26.70
2019-03-06T20:23:06.922Z,28.03
2019-03-06T20:25:37.161Z,25.70
2019-03-06T20:28:06.012Z,23.37
2019-03-06T20:30:34.787Z,21.43
2019-03-06T20:33:03.569Z,23.53
2019-03-06T20:35:32.213Z,19.07
2019-03-06T20:38:00.927Z,22.90
2019-03-06T20:40:29.620Z,24.53
2019-03-06T20:43:01.436Z,23.80
2019-03-06T20:45:30.072Z,22.47
2019-03-06T20:47:58.742Z,19.33
2019-03-06T20:50:27.302Z,17.30
2019-03-06T20:52:56.146Z,21.77
2019-03-06T20:55:24.772Z,22.10
2019-03-06T20:57:53.735Z,27.47
2019-03-06T21:00:25.243Z,22.23
2019-03-06T21:02:53.847Z,21.07
2019-03-06T21:05:22.568Z,20.60
2019-03-06T21:07:51.244Z,25.20
2019-03-06T21:10:20.640Z,17.90
2019-03-06T21:12:49.274Z,20.77
2019-03-06T21:15:20.801Z,17.03
2019-03-06T21:17:49.474Z,18.10
2019-03-06T21:20:22.478Z,15.77
2019-03-06T21:22:51.147Z,14.40
2019-03-06T21:25:20.671Z,13.33
2019-03-06T21:27:49.623Z,11.80
2019-03-06T21:30:36.394Z,14.47
2019-03-06T21:33:05.136Z,10.47
2019-03-06T21:35:33.746Z,12.13
2019-03-06T21:38:02.382Z,14.13
2019-03-06T21:40:31.359Z,9.70
2019-03-06T21:43:00.452Z,12.87
2019-03-06T21:45:29.261Z,7.97
2019-03-06T21:47:57.918Z,8.53
2019-03-06T21:50:26.451Z,14.13
2019-03-06T21:52:55.098Z,11.43
2019-03-06T21:55:23.730Z,12.80
2019-03-06T21:57:52.357Z,13.80
2019-03-06T22:00:24.384Z,12.73
2019-03-06T22:02:53.139Z,10.67
2019-03-06T22:05:21.937Z,11.53
2019-03-06T22:07:51.418Z,10.03
2019-03-06T22:10:20.328Z,16.13
2019-03-06T22:12:48.963Z,11.67
2019-03-06T22:15:22.510Z,12.37
2019-03-06T22:17:51.059Z,16.70
2019-03-06T22:20:19.722Z,16.00
2019-03-06T22:22:48.288Z,9.03
2019-03-06T22:25:18.091Z,8.40
2019-03-06T22:27:46.772Z,11.80
2019-03-06T22:30:23.185Z,13.80
2019-03-06T22:32:51.847Z,16.13
2019-03-06T22:35:20.460Z,12.87
2019-03-06T22:37:49.135Z,14.13
2019-03-06T22:40:19.811Z,18.57
2019-03-06T22:42:48.574Z,15.60
2019-03-06T22:45:21.141Z,16.23
2019-03-06T22:47:49.813Z,20.57
2019-03-06T22:50:19.288Z,21.53
2019-03-06T22:52:47.938Z,21.83
2019-03-06T22:55:20.778Z,32.87
2019-03-06T22:57:52.236Z,38.20
2019-03-06T23:00:34.584Z,40.80
2019-03-06T23:03:03.483Z,55.37
2019-03-06T23:05:36.410Z,58.40
2019-03-06T23:08:05.039Z,55.23
2019-03-06T23:10:33.711Z,61.13
2019-03-06T23:13:02.356Z,56.37
2019-03-06T23:15:30.971Z,58.10
2019-03-06T23:17:59.785Z,132.90
2019-03-06T23:20:28.460Z,140.83
2019-03-06T23:22:57.033Z,74.67
2019-03-06T23:25:25.706Z,59.63
2019-03-06T23:27:54.340Z,53.03
2019-03-06T23:30:22.945Z,50.97
2019-03-06T23:32:51.734Z,49.57
2019-03-06T23:35:20.266Z,36.73
2019-03-06T23:37:48.961Z,32.07
2019-03-06T23:40:17.607Z,33.67
2019-03-06T23:42:47.985Z,33.83
2019-03-06T23:45:16.636Z,33.90
2019-03-06T23:47:45.244Z,36.40
2019-03-06T23:50:14.176Z,35.93
2019-03-06T23:53:03.719Z,45.20
2019-03-06T23:55:33.035Z,37.60
2019-03-06T23:58:01.709Z,34.10
